createdAt,value
2023-07-25T00:01:59.086Z,99778.09
2023-07-25T00:04:25.685Z,99777.47
2023-07-25T00:06:52.102Z,99768.66
2023-07-25T00:09:18.551Z,99765.66
2023-07-25T00:11:47.082Z,99755.88
2023-07-25T00:14:13.510Z,99747.28
2023-07-25T00:16:39.975Z,99737.97
2023-07-25T00:19:06.414Z,99746.53
2023-07-25T00:21:33.134Z,99743.09
2023-07-25T00:23:59.895Z,99746.94
2023-07-25T00:26:26.314Z,99737.03
2023-07-25T00:28:52.805Z,99734.84
2023-07-25T00:31:19.403Z,99744.91
2023-07-25T00:33:45.991Z,99724.00
2023-07-25T00:36:12.429Z,99709.44
2023-07-25T00:38:38.895Z,99715.25
2023-07-25T00:41:05.377Z,99712.16
2023-07-25T00:43:31.849Z,99704.38
2023-07-25T00:45:58.404Z,99699.22
2023-07-25T00:48:24.916Z,99692.03
2023-07-25T00:50:51.964Z,99677.69
2023-07-25T00:53:18.526Z,99671.25
2023-07-25T00:55:45.771Z,99665.94
2023-07-25T00:58:12.249Z,99657.16
2023-07-25T01:00:39.565Z,99647.69
2023-07-25T01:03:06.839Z,99635.63
2023-07-25T01:05:39.694Z,99644.25
2023-07-25T01:08:06.403Z,99641.84
2023-07-25T01:10:33.568Z,99631.47
2023-07-25T01:13:00.006Z,99614.81
2023-07-25T01:15:27.930Z,99614.44
2023-07-25T01:17:54.775Z,99613.03
2023-07-25T01:20:22.199Z,99599.25
2023-07-25T01:22:50.672Z,99594.94
2023-07-25T01:25:17.348Z,99609.69
2023-07-25T01:27:43.821Z,99605.16
2023-07-25T01:30:10.527Z,99600.00
2023-07-25T01:32:36.979Z,99602.56
2023-07-25T01:35:04.102Z,99603.63
2023-07-25T01:37:30.536Z,99601.34
2023-07-25T01:39:56.984Z,99592.66
2023-07-25T01:42:23.415Z,99590.72
2023-07-25T01:44:49.858Z,99582.72
2023-07-25T01:47:16.283Z,99567.84
2023-07-25T01:49:42.708Z,99555.72
2023-07-25T01:52:09.142Z,99540.19
2023-07-25T01:54:35.566Z,99518.59
2023-07-25T01:57:02.017Z,99481.97
2023-07-25T01:59:29.247Z,99457.38
2023-07-25T02:01:55.670Z,99411.03
2023-07-25T02:04:22.164Z,99368.13
2023-07-25T02:06:48.609Z,99363.66
2023-07-25T02:09:15.037Z,99359.28
2023-07-25T02:11:41.539Z,99344.53
2023-07-25T02:14:07.970Z,99356.78
2023-07-25T02:16:37.992Z,99352.59
2023-07-25T02:19:05.027Z,99309.63
2023-07-25T02:21:31.756Z,99284.13
2023-07-25T02:23:58.520Z,99278.97
2023-07-25T02:26:25.226Z,99304.13
2023-07-25T02:28:51.695Z,99722.69
2023-07-25T02:31:19.292Z,99767.91
2023-07-25T03:34:06.008Z,99602.19
2023-07-25T03:36:33.920Z,99613.69
2023-07-25T03:39:00.489Z,99613.69
2023-07-25T03:41:29.719Z,99620.69
2023-07-25T03:43:56.632Z,99615.81
2023-07-25T03:46:23.173Z,99590.06
2023-07-25T03:48:50.250Z,99591.50
2023-07-25T03:51:16.763Z,99582.75
2023-07-25T03:53:43.303Z,99586.38
2023-07-25T03:56:09.746Z,99590.91
2023-07-25T03:58:36.224Z,99585.19
2023-07-25T04:01:02.660Z,99582.94
2023-07-25T04:03:32.141Z,99581.72
2023-07-25T04:05:58.806Z,99598.13
2023-07-25T04:08:25.404Z,99600.63
2023-07-25T04:10:52.014Z,99600.72
2023-07-25T04:13:18.921Z,99608.06
2023-07-25T04:15:45.392Z,99605.75
2023-07-25T04:18:12.005Z,99599.50
2023-07-25T04:20:38.677Z,99586.50
2023-07-25T04:23:05.372Z,99602.63
2023-07-25T04:25:32.047Z,99611.13
2023-07-25T04:27:58.675Z,99615.66
2023-07-25T04:30:25.380Z,99607.59
2023-07-25T04:32:52.341Z,99607.94
2023-07-25T04:35:19.142Z,99613.50
2023-07-25T04:37:45.612Z,99639.69
2023-07-25T04:40:13.077Z,99638.16
2023-07-25T04:42:39.769Z,99636.97
2023-07-25T04:45:06.822Z,99627.97
2023-07-25T04:47:33.331Z,99636.16
2023-07-25T04:50:00.763Z,99638.84
2023-07-25T04:52:27.404Z,99645.50
2023-07-25T04:54:58.406Z,99645.81
2023-07-25T04:57:28.459Z,99653.66
2023-07-25T04:59:54.938Z,99645.69
2023-07-25T05:02:22.316Z,99645.50
2023-07-25T05:04:48.850Z,99645.50
2023-07-25T05:07:16.525Z,99630.63
2023-07-25T05:09:43.064Z,99638.41
2023-07-25T05:12:15.462Z,99650.25
2023-07-25T05:14:42.295Z,99630.47
2023-07-25T05:17:08.982Z,99609.09
2023-07-25T05:19:35.694Z,99597.16
2023-07-25T05:22:02.581Z,99588.50
2023-07-25T05:24:29.601Z,99577.03
2023-07-25T05:26:58.459Z,99575.97
2023-07-25T05:29:26.972Z,99595.44
2023-07-25T05:31:53.676Z,99598.38
2023-07-25T05:34:20.202Z,99602.72
2023-07-25T05:36:46.853Z,99580.09
2023-07-25T05:39:13.645Z,99582.56
2023-07-25T05:41:41.060Z,99579.63
2023-07-25T05:44:10.433Z,99586.56
2023-07-25T05:46:37.287Z,99594.56
2023-07-25T05:49:06.926Z,99606.34
2023-07-25T05:51:34.851Z,99613.38
2023-07-25T05:54:01.276Z,99622.91
2023-07-25T05:56:27.832Z,99628.53
2023-07-25T05:58:54.978Z,99609.59
2023-07-25T06:01:21.648Z,99618.97
2023-07-25T06:03:48.126Z,99612.03
2023-07-25T06:06:14.564Z,99584.47
2023-07-25T06:08:40.985Z,99581.34
2023-07-25T06:11:07.628Z,99568.53
2023-07-25T06:13:34.978Z,99539.13
2023-07-25T06:16:01.554Z,99529.72
2023-07-25T06:18:28.114Z,99531.03
2023-07-25T06:20:54.608Z,99547.03
2023-07-25T06:23:21.852Z,99546.41
2023-07-25T06:25:48.455Z,99537.16
2023-07-25T06:28:18.841Z,99548.22
2023-07-25T06:30:45.490Z,99552.94
2023-07-25T06:33:15.648Z,99536.66
2023-07-25T06:35:42.343Z,99544.72
2023-07-25T06:38:08.788Z,99524.72
2023-07-25T06:40:35.259Z,99509.81
2023-07-25T06:43:01.694Z,99522.53
2023-07-25T06:45:28.143Z,99520.16
2023-07-25T06:47:54.669Z,99543.91
2023-07-25T06:50:21.737Z,99561.00
2023-07-25T06:52:48.210Z,99558.50
2023-07-25T06:55:15.001Z,99559.59
2023-07-25T06:57:41.417Z,99570.88
2023-07-25T07:00:09.075Z,99570.97
2023-07-25T07:02:35.634Z,99573.22
2023-07-25T07:05:08.707Z,99584.16
2023-07-25T07:07:42.336Z,99586.00
2023-07-25T07:10:09.246Z,99571.59
2023-07-25T07:12:35.751Z,99561.88
2023-07-25T07:15:02.419Z,99544.94
2023-07-25T07:17:28.895Z,99549.03
2023-07-25T07:19:55.998Z,99554.16
2023-07-25T07:22:22.551Z,99557.69
2023-07-25T07:24:49.053Z,99562.28
2023-07-25T07:27:15.587Z,99561.47
2023-07-25T07:29:42.058Z,99570.38
2023-07-25T07:32:08.971Z,99573.34
2023-07-25T07:34:35.486Z,99575.38
2023-07-25T07:37:01.932Z,99579.72
2023-07-25T07:39:28.515Z,99574.22
2023-07-25T07:41:55.308Z,99577.84
2023-07-25T07:44:23.730Z,99588.66
2023-07-25T07:46:51.888Z,99598.25
2023-07-25T07:49:18.359Z,99597.59
2023-07-25T07:51:51.638Z,99599.56
2023-07-25T07:54:24.153Z,99595.84
2023-07-25T07:56:50.660Z,99608.69
2023-07-25T07:59:17.096Z,99619.25
2023-07-25T08:01:44.031Z,99621.91
2023-07-25T08:04:10.664Z,99612.75
2023-07-25T08:06:37.132Z,99621.41
2023-07-25T08:09:03.833Z,99615.94
2023-07-25T08:11:30.518Z,99598.63
2023-07-25T08:13:57.299Z,99598.13
2023-07-25T08:16:25.909Z,99601.16
2023-07-25T08:18:52.588Z,99587.28
2023-07-25T08:21:19.089Z,99583.66
2023-07-25T08:23:45.626Z,99582.53
2023-07-25T08:26:12.134Z,99587.22
2023-07-25T08:28:41.717Z,99576.94
2023-07-25T08:31:08.439Z,99569.97
2023-07-25T08:33:37.915Z,99566.28
2023-07-25T08:36:05.258Z,99565.47
2023-07-25T08:38:32.305Z,99568.69
2023-07-25T08:41:25.166Z,99558.25
2023-07-25T08:43:54.109Z,99550.34
2023-07-25T08:46:21.578Z,99542.88
2023-07-25T08:48:48.915Z,99547.59
2023-07-25T08:51:22.639Z,99540.34
2023-07-25T08:54:15.172Z,99547.06
2023-07-25T08:56:42.829Z,99546.88
2023-07-25T08:59:13.069Z,99552.19
2023-07-25T09:01:39.829Z,99557.22
2023-07-25T09:04:09.249Z,99558.66
2023-07-25T09:06:36.351Z,99565.75
2023-07-25T09:09:03.580Z,99569.34
2023-07-25T09:11:30.525Z,99560.69
2023-07-25T09:13:57.188Z,99552.31
2023-07-25T09:16:23.803Z,99548.97
2023-07-25T09:18:50.435Z,99552.06
2023-07-25T09:21:17.117Z,99554.13
2023-07-25T09:23:58.815Z,99555.38
2023-07-25T09:26:27.830Z,99564.19
2023-07-25T09:29:00.917Z,99557.25
2023-07-25T09:31:29.305Z,99559.34
2023-07-25T09:33:57.518Z,99556.09
2023-07-25T09:36:24.540Z,99557.66
2023-07-25T09:38:53.489Z,99550.63
2023-07-25T09:41:22.294Z,99550.28
2023-07-25T09:43:49.338Z,99548.69
2023-07-25T09:46:15.975Z,99557.34
2023-07-25T09:48:47.784Z,99552.34
2023-07-25T09:51:14.927Z,99548.19
2023-07-25T09:53:45.810Z,99546.22
2023-07-25T09:56:12.509Z,99543.63
2023-07-25T09:58:50.862Z,99545.69
2023-07-25T10:01:26.788Z,99541.72
2023-07-25T10:03:53.609Z,99531.91
2023-07-25T10:06:20.875Z,99530.88
2023-07-25T10:08:48.676Z,99528.22
2023-07-25T10:11:15.480Z,99523.34
2023-07-25T10:13:42.610Z,99529.59
2023-07-25T10:16:11.661Z,99526.97
2023-07-25T10:18:38.386Z,99521.53
2023-07-25T10:21:04.908Z,99524.53
2023-07-25T10:23:38.210Z,99527.19
2023-07-25T10:26:12.254Z,99519.38
2023-07-25T10:28:39.955Z,99517.81
2023-07-25T10:31:08.857Z,99512.38
2023-07-25T10:33:43.755Z,99514.13
2023-07-25T10:36:24.294Z,99506.03
2023-07-25T10:38:51.315Z,99508.91
2023-07-25T10:41:17.870Z,99508.97
2023-07-25T10:43:50.618Z,99508.13
2023-07-25T10:46:19.673Z,99509.03
2023-07-25T10:48:47.969Z,99518.69
2023-07-25T10:51:16.551Z,99517.97
2023-07-25T10:54:13.666Z,99510.94
2023-07-25T10:56:41.204Z,99519.16
2023-07-25T10:59:12.395Z,99514.03
2023-07-25T11:01:48.936Z,99506.91
2023-07-25T11:04:28.555Z,99494.53
2023-07-25T11:07:14.503Z,99494.63
2023-07-25T11:09:43.118Z,99498.13
2023-07-25T11:12:11.374Z,99486.59
2023-07-25T11:14:45.390Z,99489.31
2023-07-25T11:17:13.065Z,99497.47
2023-07-25T11:19:39.943Z,99494.78
2023-07-25T11:22:13.316Z,99485.97
2023-07-25T11:24:44.753Z,99501.91
2023-07-25T11:27:12.203Z,99495.78
2023-07-25T11:29:38.740Z,99497.53
2023-07-25T11:32:05.594Z,99488.72
2023-07-25T11:34:32.062Z,99487.63
2023-07-25T11:36:58.590Z,99481.41
2023-07-25T11:39:25.198Z,99481.66
2023-07-25T11:41:51.786Z,99476.59
2023-07-25T11:44:20.241Z,99474.78
2023-07-25T11:46:55.790Z,99467.69
2023-07-25T11:49:40.077Z,99466.56
2023-07-25T11:52:09.248Z,99460.59
2023-07-25T11:54:36.455Z,99458.00
2023-07-25T11:57:03.246Z,99459.88
2023-07-25T11:59:29.758Z,99454.59
2023-07-25T12:02:05.933Z,99445.78
2023-07-25T12:04:32.501Z,99436.16
2023-07-25T12:07:00.138Z,99431.81
2023-07-25T12:09:29.734Z,99433.50
2023-07-25T12:11:56.273Z,99429.06
2023-07-25T12:14:23.335Z,99431.72
2023-07-25T12:16:49.836Z,99424.63
2023-07-25T12:19:16.383Z,99426.41
2023-07-25T12:21:44.934Z,99421.13
2023-07-25T12:24:13.481Z,99420.22
2023-07-25T12:26:52.951Z,99413.13
2023-07-25T12:29:25.483Z,99418.44
2023-07-25T12:31:53.040Z,99416.72
2023-07-25T12:34:20.024Z,99408.84
2023-07-25T12:36:47.780Z,99405.34
2023-07-25T12:39:14.796Z,99408.81
2023-07-25T12:41:43.615Z,99414.13
2023-07-25T12:44:11.033Z,99405.38
2023-07-25T12:46:41.304Z,99408.81
2023-07-25T12:49:07.999Z,99397.41
2023-07-25T12:51:34.688Z,99396.47
2023-07-25T12:54:01.583Z,99405.28
2023-07-25T12:56:28.135Z,99398.28
2023-07-25T12:58:55.870Z,99397.41
2023-07-25T13:01:23.195Z,99397.38
2023-07-25T13:03:49.962Z,99397.38
2023-07-25T13:06:16.521Z,99384.16
2023-07-25T13:08:43.014Z,99377.16
2023-07-25T13:11:09.726Z,99379.81
2023-07-25T13:13:36.201Z,99385.06
2023-07-25T13:16:04.799Z,99378.91
2023-07-25T13:18:31.415Z,99385.94
2023-07-25T13:20:57.998Z,99377.97
2023-07-25T13:23:24.464Z,99378.03
2023-07-25T13:25:51.069Z,99368.31
2023-07-25T13:28:17.794Z,99362.19
2023-07-25T13:30:44.510Z,99348.13
2023-07-25T13:33:11.331Z,99355.16
2023-07-25T13:35:38.038Z,99348.13
2023-07-25T13:38:04.707Z,99349.88
2023-07-25T13:40:31.319Z,99345.47
2023-07-25T13:42:57.748Z,99351.66
2023-07-25T13:45:34.354Z,99346.44
2023-07-25T13:48:04.729Z,99342.91
2023-07-25T13:50:38.722Z,99334.97
2023-07-25T13:53:17.511Z,99327.03
2023-07-25T13:55:43.954Z,99317.34
2023-07-25T13:58:22.950Z,99327.88
2023-07-25T14:00:49.950Z,99319.97
2023-07-25T14:03:16.367Z,99319.97
2023-07-25T14:05:42.915Z,99318.22
2023-07-25T14:08:09.512Z,99310.31
2023-07-25T14:10:37.177Z,99312.06
2023-07-25T14:13:03.863Z,99316.44
2023-07-25T14:15:31.766Z,99311.19
2023-07-25T14:17:58.607Z,99312.06
2023-07-25T14:20:25.788Z,99313.81
2023-07-25T14:22:52.247Z,99312.94
2023-07-25T14:25:18.747Z,99307.66
2023-07-25T14:27:45.285Z,99311.16
2023-07-25T14:30:12.590Z,99308.53
2023-07-25T14:32:39.110Z,99305.91
2023-07-25T14:35:06.005Z,99308.56
2023-07-25T14:37:44.144Z,99306.81
2023-07-25T14:40:18.975Z,99309.44
2023-07-25T14:42:45.552Z,99311.22
2023-07-25T14:45:12.091Z,99311.22
2023-07-25T14:47:38.819Z,99318.25
2023-07-25T14:50:06.005Z,99312.06
2023-07-25T14:52:32.752Z,99312.03
2023-07-25T14:54:59.273Z,99312.03
2023-07-25T14:57:25.777Z,99312.91
2023-07-25T14:59:52.372Z,99308.56
2023-07-25T15:02:19.052Z,99323.50
2023-07-25T15:04:45.692Z,99324.41
2023-07-25T15:07:12.221Z,99315.63
2023-07-25T15:09:38.753Z,99314.75
2023-07-25T15:12:05.782Z,99314.72
2023-07-25T15:14:32.273Z,99319.13
2023-07-25T15:16:58.815Z,99314.69
2023-07-25T15:19:28.347Z,99318.19
2023-07-25T15:21:55.334Z,99310.28
2023-07-25T15:24:21.896Z,99307.66
2023-07-25T15:26:50.371Z,99309.41
2023-07-25T15:29:16.863Z,99305.03
2023-07-25T15:31:43.748Z,99297.97
2023-07-25T15:34:10.358Z,99294.47
2023-07-25T15:36:36.990Z,99296.22
2023-07-25T15:39:03.895Z,99289.22
2023-07-25T15:41:31.144Z,99285.69
2023-07-25T15:43:57.913Z,99279.53
2023-07-25T15:46:24.375Z,99276.03
2023-07-25T15:48:50.993Z,99269.88
2023-07-25T15:51:18.163Z,99270.75
2023-07-25T15:53:44.807Z,99269.00
2023-07-25T15:56:11.953Z,99265.50
2023-07-25T15:58:38.413Z,99262.84
2023-07-25T16:01:05.107Z,99261.13
2023-07-25T16:03:31.733Z,99259.34
2023-07-25T16:05:58.283Z,99255.84
2023-07-25T16:08:25.730Z,99253.22
2023-07-25T16:10:52.254Z,99252.34
2023-07-25T16:13:18.888Z,99254.97
2023-07-25T16:15:47.429Z,99248.81
2023-07-25T16:18:14.653Z,99248.78
2023-07-25T16:20:41.255Z,99251.44
2023-07-25T16:23:07.872Z,99251.44
2023-07-25T16:25:34.324Z,99242.66
2023-07-25T16:28:01.033Z,99247.03
2023-07-25T16:30:27.823Z,99251.41
2023-07-25T16:32:54.797Z,99252.31
2023-07-25T16:35:21.299Z,99240.00
2023-07-25T16:37:49.015Z,99237.38
2023-07-25T16:40:15.612Z,99240.03
2023-07-25T16:42:42.271Z,99234.75
2023-07-25T16:45:09.320Z,99236.53
2023-07-25T16:47:35.933Z,99240.03
2023-07-25T16:50:02.639Z,99244.44
2023-07-25T16:52:29.448Z,99252.38
2023-07-25T16:54:55.897Z,99240.91
2023-07-25T16:57:22.491Z,99245.31
2023-07-25T16:59:49.158Z,99241.81
2023-07-25T17:02:15.732Z,99240.03
2023-07-25T17:04:43.907Z,99248.84
2023-07-25T17:07:10.437Z,99240.94
2023-07-25T17:09:36.938Z,99238.28
2023-07-25T17:12:04.565Z,99241.78
2023-07-25T17:14:31.379Z,99253.19
2023-07-25T17:16:57.859Z,99243.50
2023-07-25T17:19:24.277Z,99241.78
2023-07-25T17:21:50.804Z,99245.31
2023-07-25T17:24:17.393Z,99247.06
2023-07-25T17:26:43.971Z,99254.97
2023-07-25T17:29:10.501Z,99254.94
2023-07-25T17:31:37.672Z,99244.41
2023-07-25T17:34:04.822Z,99252.31
2023-07-25T17:36:31.472Z,99240.88
2023-07-25T17:38:58.083Z,99244.41
2023-07-25T17:41:24.910Z,99242.63
2023-07-25T17:43:51.421Z,99235.59
2023-07-25T17:46:17.917Z,99239.13
2023-07-25T17:48:44.361Z,99227.69
2023-07-25T17:51:11.106Z,99239.09
2023-07-25T17:53:38.059Z,99238.22
2023-07-25T17:56:07.516Z,99236.44
2023-07-25T17:58:34.230Z,99226.72
2023-07-25T18:01:01.176Z,99221.47
2023-07-25T18:03:27.969Z,99223.22
2023-07-25T18:05:54.535Z,99217.06
2023-07-25T18:08:21.198Z,99223.22
2023-07-25T18:10:48.111Z,99226.69
2023-07-25T18:13:14.743Z,99221.44
2023-07-25T18:15:41.290Z,99227.56
2023-07-25T18:18:08.037Z,99225.78
2023-07-25T18:20:34.478Z,99228.38
2023-07-25T18:23:00.945Z,99226.59
2023-07-25T18:25:27.412Z,99230.09
2023-07-25T18:27:53.981Z,99235.34
2023-07-25T18:30:20.534Z,99237.13
2023-07-25T18:32:47.160Z,99237.97
2023-07-25T18:35:16.692Z,99243.25
2023-07-25T18:37:45.747Z,99235.28
2023-07-25T18:40:12.498Z,99238.78
2023-07-25T18:42:39.160Z,99236.94
2023-07-25T18:45:06.461Z,99236.91
2023-07-25T18:47:35.484Z,99243.00
2023-07-25T18:50:02.597Z,99233.28
2023-07-25T18:52:29.584Z,99247.28
2023-07-25T18:54:56.069Z,99246.34
2023-07-25T18:57:22.716Z,99249.78
2023-07-25T18:59:49.689Z,99261.09
2023-07-25T19:02:16.735Z,99269.84
2023-07-25T19:04:44.573Z,99268.09
2023-07-25T19:07:15.769Z,99268.06
2023-07-25T19:09:43.391Z,99270.53
2023-07-25T19:12:10.217Z,99278.38
2023-07-25T19:14:36.853Z,99279.28
2023-07-25T19:17:03.497Z,99288.00
2023-07-25T19:19:30.051Z,99294.00
2023-07-25T19:21:56.480Z,99301.94
2023-07-25T19:24:25.890Z,99302.72
2023-07-25T19:26:53.292Z,99300.84
2023-07-25T19:29:20.249Z,99300.03
2023-07-25T19:31:46.709Z,99295.72
2023-07-25T19:34:14.148Z,99297.50
2023-07-25T19:36:40.738Z,99297.34
2023-07-25T19:39:07.356Z,99294.56
2023-07-25T19:41:36.404Z,99300.59
2023-07-25T19:44:07.375Z,99298.06
2023-07-25T19:46:34.356Z,99293.75
2023-07-25T19:49:01.308Z,99306.94
2023-07-25T19:51:27.822Z,99305.19
2023-07-25T19:53:54.335Z,99313.91
2023-07-25T19:56:20.780Z,99309.44
2023-07-25T19:58:47.262Z,99308.44
2023-07-25T20:01:14.389Z,99310.06
2023-07-25T20:03:41.421Z,99319.56
2023-07-25T20:06:12.549Z,99325.56
2023-07-25T20:08:39.124Z,99322.91
2023-07-25T20:11:05.671Z,99334.41
2023-07-25T20:13:33.198Z,99349.28
2023-07-25T20:16:00.051Z,99351.06
2023-07-25T20:18:27.776Z,99349.34
2023-07-25T20:21:09.867Z,99355.44
2023-07-25T20:23:37.846Z,99359.91
2023-07-25T20:26:04.859Z,99359.84
2023-07-25T20:28:31.380Z,99369.25
2023-07-25T20:30:57.892Z,99359.50
2023-07-25T20:33:24.492Z,99370.84
2023-07-25T20:35:51.962Z,99368.31
2023-07-25T20:38:18.731Z,99354.34
2023-07-25T20:40:45.225Z,99343.88
2023-07-25T20:43:11.708Z,99371.81
2023-07-25T20:45:38.197Z,99399.88
2023-07-25T20:48:05.150Z,99404.13
2023-07-25T20:50:33.531Z,99389.13
2023-07-25T20:53:00.366Z,99377.81
2023-07-25T20:55:26.776Z,99360.34
2023-07-25T20:57:53.215Z,99373.28
2023-07-25T21:00:19.854Z,99388.09
2023-07-25T21:02:49.917Z,99394.28
2023-07-25T21:05:16.761Z,99371.34
2023-07-25T21:07:43.399Z,99370.41
2023-07-25T21:10:10.326Z,99376.69
2023-07-25T21:12:38.291Z,99397.75
2023-07-25T21:15:06.978Z,99407.38
2023-07-25T21:17:33.475Z,99416.09
2023-07-25T21:19:59.942Z,99411.63
2023-07-25T21:22:26.399Z,99436.13
2023-07-25T21:24:52.925Z,99445.75
2023-07-25T21:27:20.996Z,99448.47
2023-07-25T21:29:47.807Z,99451.88
2023-07-25T21:32:14.324Z,99440.34
2023-07-25T21:34:40.811Z,99433.41
2023-07-25T21:37:07.297Z,99435.19
2023-07-25T21:39:35.392Z,99437.78
2023-07-25T21:42:01.999Z,99438.66
2023-07-25T21:44:28.601Z,99437.63
2023-07-25T21:46:55.142Z,99431.38
2023-07-25T21:49:22.677Z,99421.72
2023-07-25T21:51:49.340Z,99421.63
2023-07-25T21:54:15.911Z,99412.69
2023-07-25T21:56:42.392Z,99419.63
2023-07-25T21:59:08.957Z,99416.22
2023-07-25T22:01:35.491Z,99417.13
2023-07-25T22:04:02.338Z,99412.00
2023-07-25T22:06:30.002Z,99404.94
2023-07-25T22:08:56.724Z,99411.69
2023-07-25T22:11:23.246Z,99405.44
2023-07-25T22:13:49.832Z,99419.38
2023-07-25T22:16:17.594Z,99424.69
2023-07-25T22:18:44.847Z,99435.13
2023-07-25T22:21:11.528Z,99450.72
2023-07-25T22:23:38.445Z,99465.47
2023-07-25T22:26:05.309Z,99475.88
2023-07-25T22:28:32.165Z,99485.53
2023-07-25T22:31:02.146Z,99495.94
2023-07-25T22:33:28.856Z,99505.63
2023-07-25T22:35:55.402Z,99517.00
2023-07-25T22:38:21.856Z,99516.25
2023-07-25T22:40:48.360Z,99531.31
2023-07-25T22:43:14.854Z,99533.25
2023-07-25T22:45:41.395Z,99538.53
2023-07-25T22:48:08.177Z,99540.25
2023-07-25T22:50:34.672Z,99544.72
2023-07-25T22:53:01.326Z,99547.28
2023-07-25T22:55:28.724Z,99557.56
2023-07-25T22:57:55.506Z,99550.50
2023-07-25T23:00:22.089Z,99557.47
2023-07-25T23:02:49.860Z,99563.66
2023-07-25T23:05:16.472Z,99567.78
2023-07-25T23:07:42.905Z,99565.13
2023-07-25T23:10:09.713Z,99566.00
2023-07-25T23:12:36.231Z,99567.66
2023-07-25T23:15:03.011Z,99565.59
2023-07-25T23:17:30.758Z,99569.75
2023-07-25T23:19:57.278Z,99566.94
2023-07-25T23:22:23.774Z,99576.53
2023-07-25T23:24:50.275Z,99582.50
2023-07-25T23:27:16.854Z,99585.75
2023-07-25T23:29:43.494Z,99595.16
2023-07-25T23:32:10.027Z,99600.41
2023-07-25T23:34:48.685Z,99602.75
2023-07-25T23:37:16.090Z,99602.56
2023-07-25T23:39:42.995Z,99601.63
2023-07-25T23:42:10.052Z,99609.47
2023-07-25T23:44:36.730Z,99604.19
2023-07-25T23:47:05.333Z,99614.53
2023-07-25T23:49:33.944Z,99605.63
2023-07-25T23:52:00.376Z,99616.84
2023-07-25T23:54:27.309Z,99615.16
2023-07-25T23:56:53.872Z,99611.56
2023-07-25T23:59:20.690Z,99601.03
